Time;durP1;ratioP1;P1;durP2;ratioP2;P2;SDS_P1;SDS_P2;PMS_P1;PMS_P2;Temp;Humidity;BMP_temperature;BMP_pressure;BME280_temperature;BME280_humidity;BME280_pressure;Samples;Min_cycle;Max_cycle;Signal;HPM_P1;HPM_P2
2021/03/21 00:01:52;;;;;;;57.75;8.27;;;17.30;99.90;;;;;;5069048;28;20386;-84
2021/03/21 00:04:19;;;;;;;55.85;7.68;;;17.20;99.90;;;;;;5069129;28;20366;-84
2021/03/21 00:06:46;;;;;;;44.85;6.38;;;17.10;99.90;;;;;;5067666;28;20819;-84
2021/03/21 00:09:14;;;;;;;55.00;7.30;;;16.90;99.90;;;;;;5069053;28;20373;-82
2021/03/21 00:11:41;;;;;;;52.60;7.47;;;16.90;99.90;;;;;;5069126;28;20378;-83
2021/03/21 00:14:09;;;;;;;57.10;8.43;;;16.90;99.90;;;;;;5069035;28;20369;-83
2021/03/21 00:16:36;;;;;;;63.42;9.80;;;17.00;99.90;;;;;;5068719;28;20382;-84
2021/03/21 00:19:06;;;;;;;64.65;9.20;;;17.00;99.90;;;;;;5069670;28;20378;-84
2021/03/21 00:21:34;;;;;;;59.22;9.90;;;17.10;99.90;;;;;;5069102;28;20465;-84
2021/03/21 00:24:03;;;;;;;66.75;9.50;;;17.10;99.90;;;;;;5069576;28;20372;-88
2021/03/21 00:26:30;;;;;;;58.78;9.80;;;17.10;99.90;;;;;;5068743;28;20412;-83
2021/03/21 00:28:59;;;;;;;62.65;9.77;;;17.20;99.90;;;;;;5068842;28;20725;-85
2021/03/21 00:31:26;;;;;;;61.97;9.18;;;17.20;99.90;;;;;;5068876;28;20858;-84
2021/03/21 00:33:53;;;;;;;57.17;8.65;;;17.20;99.90;;;;;;5068546;28;20378;-82
2021/03/21 00:36:20;;;;;;;58.83;8.38;;;17.20;99.90;;;;;;5068303;28;20386;-83
2021/03/21 00:38:50;;;;;;;53.50;7.50;;;17.20;99.90;;;;;;5068530;28;20367;-82
2021/03/21 00:41:25;;;;;;;51.78;8.63;;;17.20;99.90;;;;;;5068722;28;20397;-83
2021/03/21 00:43:54;;;;;;;65.73;8.20;;;17.20;99.90;;;;;;5068651;28;20378;-82
2021/03/21 00:46:22;;;;;;;67.13;8.52;;;17.20;99.90;;;;;;5068428;28;21178;-83
2021/03/21 00:48:50;;;;;;;67.50;9.47;;;17.10;99.90;;;;;;5066113;28;20467;-83
2021/03/21 00:51:18;;;;;;;57.08;8.25;;;17.20;99.90;;;;;;5048254;28;20464;-83
2021/03/21 00:53:45;;;;;;;57.30;9.25;;;17.20;99.90;;;;;;5048243;28;20462;-83
2021/03/21 00:56:42;;;;;;;62.43;8.87;;;17.20;99.90;;;;;;5048381;28;20395;-83
2021/03/21 00:59:10;;;;;;;64.37;8.93;;;17.20;99.90;;;;;;5048129;28;20376;-84
2021/03/21 01:01:37;;;;;;;58.97;8.55;;;17.20;99.90;;;;;;5052057;28;20378;-82
2021/03/21 01:04:04;;;;;;;51.50;8.05;;;17.20;99.90;;;;;;5063832;28;20378;-81
2021/03/21 01:06:32;;;;;;;60.03;8.60;;;17.20;99.90;;;;;;5072664;28;20485;-83
2021/03/21 01:09:04;;;;;;;67.13;8.50;;;17.20;99.90;;;;;;5073721;28;20378;-84
2021/03/21 01:11:37;;;;;;;66.90;9.13;;;17.20;99.90;;;;;;5073883;28;20366;-82
2021/03/21 01:14:05;;;;;;;69.15;8.98;;;17.30;99.90;;;;;;5072858;28;20853;-84
2021/03/21 01:16:39;;;;;;;57.45;7.20;;;17.30;99.90;;;;;;5072278;28;20453;-83
2021/03/21 01:19:12;;;;;;;56.60;8.20;;;17.20;99.90;;;;;;5062464;28;20415;-84
2021/03/21 01:21:44;;;;;;;54.28;7.68;;;17.30;99.90;;;;;;5053062;28;20818;-85
2021/03/21 01:24:15;;;;;;;47.47;6.63;;;17.30;99.90;;;;;;5052750;28;20463;-84
2021/03/21 01:26:42;;;;;;;48.20;6.78;;;17.10;99.90;;;;;;5052138;28;20403;-84
2021/03/21 01:29:09;;;;;;;51.38;7.30;;;17.10;99.90;;;;;;5052319;28;20415;-84
2021/03/21 01:31:36;;;;;;;45.13;6.57;;;17.10;99.90;;;;;;5052335;28;20445;-82
2021/03/21 01:34:04;;;;;;;44.42;6.00;;;17.10;99.90;;;;;;5034237;28;20915;-83
2021/03/21 01:36:34;;;;;;;47.17;6.35;;;17.00;99.90;;;;;;5064842;28;20449;-85
2021/03/21 01:39:06;;;;;;;40.45;5.95;;;17.10;99.90;;;;;;5071886;28;20386;-84
2021/03/21 01:41:36;;;;;;;49.58;6.80;;;17.00;99.90;;;;;;5072210;28;20453;-84
2021/03/21 01:44:14;;;;;;;52.03;7.35;;;17.00;99.90;;;;;;5072271;28;20377;-83
2021/03/21 01:47:22;;;;;;;46.45;6.80;;;17.00;99.90;;;;;;5072055;28;20432;-84
2021/03/21 01:49:50;;;;;;;38.08;5.70;;;17.00;99.90;;;;;;5072178;28;20449;-84
2021/03/21 01:52:42;;;;;;;41.72;6.10;;;16.90;99.90;;;;;;5052862;28;20396;-87
2021/03/21 01:55:14;;;;;;;45.28;6.15;;;16.90;99.90;;;;;;5052073;28;20384;-85
2021/03/21 01:57:42;;;;;;;41.47;5.97;;;16.70;99.90;;;;;;5051780;28;20376;-84
2021/03/21 02:00:10;;;;;;;39.33;5.45;;;16.80;99.90;;;;;;5051581;28;20388;-87
2021/03/21 02:02:38;;;;;;;31.40;4.47;;;16.70;99.90;;;;;;5051938;28;20372;-84
2021/03/21 02:05:06;;;;;;;33.58;4.78;;;16.70;99.90;;;;;;5051794;28;20411;-84
2021/03/21 02:08:00;;;;;;;30.88;5.35;;;16.70;99.90;;;;;;5070436;28;20448;-85
2021/03/21 02:10:45;;;;;;;27.40;5.03;;;16.70;99.90;;;;;;5070727;28;20449;-85
2021/03/21 02:13:35;;;;;;;39.97;5.22;;;16.70;99.90;;;;;;5071365;28;20402;-85
2021/03/21 02:16:13;;;;;;;32.97;4.95;;;16.80;99.90;;;;;;5071519;28;20747;-84
2021/03/21 02:18:52;;;;;;;29.95;4.30;;;16.80;99.90;;;;;;5071083;28;20748;-83
2021/03/21 02:21:40;;;;;;;29.55;4.25;;;16.90;99.90;;;;;;5069580;28;20386;-83
2021/03/21 02:24:30;;;;;;;28.38;4.70;;;16.90;99.90;;;;;;5071312;28;20384;-85
2021/03/21 02:27:05;;;;;;;30.67;4.63;;;16.90;99.90;;;;;;5070622;28;20402;-82
2021/03/21 02:29:52;;;;;;;20.10;4.03;;;16.90;99.90;;;;;;5070806;28;20405;-82
2021/03/21 02:32:28;;;;;;;23.67;3.92;;;16.90;99.90;;;;;;5070893;28;20389;-82
2021/03/21 02:35:09;;;;;;;27.15;4.38;;;17.00;99.90;;;;;;5070494;28;20862;-82
2021/03/21 02:37:49;;;;;;;15.85;2.72;;;17.00;99.90;;;;;;5050197;28;20431;-83
2021/03/21 02:40:35;;;;;;;22.20;3.47;;;17.00;99.90;;;;;;5055349;28;20386;-83
2021/03/21 02:43:34;;;;;;;22.75;3.67;;;17.00;99.90;;;;;;5067634;28;20389;-82
2021/03/21 02:46:07;;;;;;;21.38;3.03;;;17.10;99.90;;;;;;5046478;28;20905;-82
2021/03/21 02:48:39;;;;;;;24.00;3.88;;;17.10;99.90;;;;;;5074887;28;20391;-82
2021/03/21 02:51:16;;;;;;;19.50;3.00;;;17.10;99.90;;;;;;5078825;28;20438;-82
2021/03/21 02:53:47;;;;;;;20.20;3.47;;;17.10;99.90;;;;;;5088255;28;20385;-83
2021/03/21 02:56:22;;;;;;;21.23;3.72;;;17.10;99.90;;;;;;5083568;28;20402;-82
2021/03/21 02:59:21;;;;;;;21.05;4.15;;;17.10;99.90;;;;;;5069881;28;20394;-83
2021/03/21 03:02:12;;;;;;;23.65;4.07;;;17.20;99.90;;;;;;5070401;28;20370;-84
2021/03/21 03:04:47;;;;;;;27.63;4.57;;;17.30;99.90;;;;;;5071906;28;20418;-85
2021/03/21 03:07:26;;;;;;;30.20;4.78;;;17.40;99.90;;;;;;5089012;28;20444;-84
2021/03/21 03:09:58;;;;;;;34.22;5.40;;;17.40;99.90;;;;;;5073246;28;20370;-85
2021/03/21 03:12:35;;;;;;;35.33;5.32;;;17.40;99.90;;;;;;5069302;28;20455;-85
2021/03/21 03:15:12;;;;;;;29.90;4.43;;;17.40;99.90;;;;;;5060147;28;20816;-85
2021/03/21 03:17:59;;;;;;;30.42;4.70;;;17.40;99.90;;;;;;5083390;28;20396;-85
2021/03/21 03:20:26;;;;;;;35.35;5.10;;;17.40;99.90;;;;;;5081743;28;20402;-86
2021/03/21 03:22:58;;;;;;;30.67;5.37;;;17.50;99.90;;;;;;5068967;28;20521;-85
2021/03/21 03:25:27;;;;;;;25.33;4.47;;;17.40;99.90;;;;;;5069610;28;20944;-86
2021/03/21 03:28:12;;;;;;;27.87;4.10;;;17.50;99.90;;;;;;5074239;28;20491;-85
2021/03/21 03:31:08;;;;;;;30.38;4.72;;;17.40;99.90;;;;;;5069886;28;20404;-83
2021/03/21 03:33:36;;;;;;;34.97;5.20;;;17.40;99.90;;;;;;5074035;28;20415;-83
2021/03/21 03:36:09;;;;;;;28.48;4.55;;;17.40;99.90;;;;;;5081529;28;20392;-84
2021/03/21 03:38:37;;;;;;;29.97;5.10;;;17.30;99.90;;;;;;5069356;28;20424;-84
2021/03/21 03:41:21;;;;;;;27.08;4.70;;;17.30;99.90;;;;;;5070624;28;20879;-84
2021/03/21 03:44:20;;;;;;;29.95;4.97;;;17.30;99.90;;;;;;5083256;28;20402;-85
2021/03/21 03:47:13;;;;;;;36.70;5.60;;;17.30;99.90;;;;;;5081572;28;20868;-83
2021/03/21 03:49:54;;;;;;;35.40;5.13;;;17.30;99.90;;;;;;5075270;28;20405;-84
2021/03/21 03:52:32;;;;;;;25.55;4.50;;;17.30;99.90;;;;;;5078401;28;20905;-84
2021/03/21 03:55:18;;;;;;;29.75;4.22;;;17.20;99.90;;;;;;5069378;28;20386;-84
2021/03/21 03:58:10;;;;;;;28.17;4.25;;;17.20;99.90;;;;;;5069367;28;20498;-83
2021/03/21 04:00:53;;;;;;;32.28;4.70;;;17.20;99.90;;;;;;5068851;28;20385;-84
2021/03/21 04:03:45;;;;;;;28.58;4.50;;;17.10;99.90;;;;;;5069148;28;20417;-82
2021/03/21 04:06:36;;;;;;;24.77;4.27;;;17.10;99.90;;;;;;5066737;28;20746;-83
2021/03/21 04:09:15;;;;;;;24.30;3.95;;;17.00;99.90;;;;;;5062090;28;21009;-83
2021/03/21 04:11:56;;;;;;;24.60;4.50;;;17.00;99.90;;;;;;5068650;28;20440;-83
2021/03/21 04:14:41;;;;;;;31.20;4.60;;;17.00;99.90;;;;;;5065273;28;20417;-84
2021/03/21 04:17:18;;;;;;;30.58;4.63;;;17.00;99.90;;;;;;5068426;28;20489;-83
2021/03/21 04:20:20;;;;;;;23.83;3.90;;;17.00;99.90;;;;;;5066736;28;20414;-84
2021/03/21 04:23:10;;;;;;;22.57;4.33;;;16.90;99.90;;;;;;5065818;28;20398;-83
2021/03/21 04:25:43;;;;;;;25.43;4.00;;;17.00;99.90;;;;;;5068714;28;20451;-84
2021/03/21 04:28:26;;;;;;;23.15;3.90;;;16.90;99.90;;;;;;5068916;28;20821;-83
2021/03/21 04:30:58;;;;;;;21.80;3.28;;;16.90;99.90;;;;;;5067925;28;20489;-84
2021/03/21 04:33:32;;;;;;;22.38;3.55;;;16.90;99.90;;;;;;5067743;28;20749;-83
2021/03/21 04:36:05;;;;;;;17.98;2.85;;;16.80;99.90;;;;;;5070781;28;20385;-82
2021/03/21 04:38:46;;;;;;;17.08;3.25;;;16.80;99.90;;;;;;5058641;28;20418;-81
2021/03/21 04:44:08;;;;;;;23.75;4.13;;;16.70;99.90;;;;;;5061451;28;20846;-84
2021/03/21 04:46:50;;;;;;;19.40;3.65;;;16.60;99.90;;;;;;5071964;28;20413;-85
2021/03/21 04:49:20;;;;;;;27.02;3.55;;;16.60;99.90;;;;;;5076360;28;20394;-86
2021/03/21 04:51:48;;;;;;;22.77;3.90;;;16.70;99.90;;;;;;5082530;28;20487;-84
2021/03/21 04:54:22;;;;;;;27.05;4.30;;;16.60;99.90;;;;;;5086981;28;20401;-84
2021/03/21 04:56:58;;;;;;;17.05;3.20;;;16.60;99.90;;;;;;5073379;28;20489;-85
2021/03/21 04:59:36;;;;;;;22.35;3.63;;;16.60;99.90;;;;;;5066759;28;20738;-86
2021/03/21 05:02:27;;;;;;;23.42;3.70;;;16.60;99.90;;;;;;5068145;28;20389;-85
2021/03/21 05:05:03;;;;;;;20.30;3.58;;;16.60;99.90;;;;;;5068067;28;20370;-85
2021/03/21 05:07:46;;;;;;;18.70;3.23;;;16.60;99.90;;;;;;5066645;28;20934;-84
2021/03/21 05:10:31;;;;;;;21.77;3.13;;;16.60;99.90;;;;;;5064169;28;20404;-85
2021/03/21 05:13:13;;;;;;;16.90;3.60;;;16.60;99.90;;;;;;5053625;28;20402;-85
2021/03/21 05:15:51;;;;;;;19.20;3.17;;;16.60;99.90;;;;;;5066674;28;20381;-84
2021/03/21 05:18:51;;;;;;;21.50;3.22;;;16.60;99.90;;;;;;5066001;28;20765;-84
2021/03/21 05:21:42;;;;;;;19.88;3.50;;;16.70;99.90;;;;;;5074139;28;20388;-83
2021/03/21 05:24:35;;;;;;;17.77;3.10;;;16.70;99.90;;;;;;5065237;28;20390;-83
2021/03/21 05:27:21;;;;;;;19.08;3.22;;;16.70;99.90;;;;;;5067566;28;20421;-83
2021/03/21 05:30:09;;;;;;;18.52;3.17;;;16.60;99.90;;;;;;5062252;28;20529;-83
2021/03/21 05:32:37;;;;;;;17.30;2.97;;;16.60;99.90;;;;;;5071632;28;20465;-83
2021/03/21 05:35:06;;;;;;;19.55;2.92;;;16.60;99.90;;;;;;5072851;28;20396;-82
2021/03/21 05:37:53;;;;;;;23.13;3.50;;;16.60;99.90;;;;;;5071725;28;20425;-83
2021/03/21 05:40:35;;;;;;;22.95;3.50;;;16.60;99.90;;;;;;5077259;28;20413;-85
2021/03/21 05:43:32;;;;;;;16.67;3.10;;;16.60;99.90;;;;;;5072714;28;20444;-85
2021/03/21 05:46:24;;;;;;;20.70;3.30;;;16.60;99.90;;;;;;5068862;28;20425;-84
2021/03/21 05:49:20;;;;;;;22.75;3.42;;;16.70;99.90;;;;;;5085853;28;20915;-84
2021/03/21 05:52:17;;;;;;;24.75;3.50;;;16.70;99.90;;;;;;5059501;28;20370;-84
2021/03/21 05:55:07;;;;;;;24.20;3.42;;;16.70;99.90;;;;;;5071831;28;20376;-84
2021/03/21 05:57:34;;;;;;;22.02;3.75;;;16.70;99.90;;;;;;5031856;28;20384;-83
2021/03/21 06:00:34;;;;;;;21.05;3.20;;;16.70;99.90;;;;;;5070181;28;20401;-84
2021/03/21 06:03:14;;;;;;;19.35;3.58;;;16.70;99.90;;;;;;5071711;28;20374;-83
2021/03/21 06:06:02;;;;;;;20.83;3.80;;;16.70;99.90;;;;;;5071685;28;20389;-84
2021/03/21 06:08:36;;;;;;;20.15;3.15;;;16.70;99.90;;;;;;5071461;28;20399;-84
2021/03/21 06:11:33;;;;;;;15.35;3.30;;;16.70;99.90;;;;;;5071740;28;20417;-84
2021/03/21 06:14:26;;;;;;;20.02;3.53;;;16.70;99.90;;;;;;5071716;28;20419;-83
2021/03/21 06:17:10;;;;;;;21.30;3.67;;;16.80;99.90;;;;;;5071446;28;20385;-82
2021/03/21 06:20:21;;;;;;;19.50;3.22;;;16.80;99.90;;;;;;5071422;28;20451;-82
2021/03/21 06:23:23;;;;;;;22.50;3.35;;;16.80;99.90;;;;;;5069151;28;20386;-83
2021/03/21 06:26:11;;;;;;;19.02;3.58;;;16.70;99.90;;;;;;5038679;28;20386;-84
2021/03/21 06:29:08;;;;;;;19.00;3.00;;;16.60;99.90;;;;;;5071584;28;20393;-84
2021/03/21 06:32:00;;;;;;;17.80;3.03;;;16.60;99.90;;;;;;5071360;28;20362;-82
2021/03/21 06:34:58;;;;;;;21.10;3.70;;;16.60;99.90;;;;;;5071346;28;20382;-83
2021/03/21 06:37:48;;;;;;;21.38;3.38;;;16.70;99.90;;;;;;5071039;28;20903;-83
2021/03/21 06:41:13;;;;;;;19.13;2.65;;;16.70;99.90;;;;;;5052048;28;20409;-84
2021/03/21 06:43:51;;;;;;;17.38;3.65;;;16.70;99.90;;;;;;4950664;29;20392;-83
2021/03/21 06:46:49;;;;;;;19.35;2.90;;;16.70;99.90;;;;;;5021201;28;20752;-83
2021/03/21 06:49:29;;;;;;;22.13;3.00;;;16.70;99.90;;;;;;5030574;28;20393;-84
2021/03/21 06:52:05;;;;;;;20.05;3.33;;;16.70;99.90;;;;;;5030950;28;20855;-83
2021/03/21 06:54:51;;;;;;;19.10;3.35;;;16.70;99.90;;;;;;5030603;28;20362;-84
2021/03/21 06:57:55;;;;;;;23.48;4.10;;;16.60;99.90;;;;;;5030586;28;20803;-84
2021/03/21 07:01:12;;;;;;;23.60;3.85;;;16.60;99.90;;;;;;5029564;28;20447;-84
2021/03/21 07:04:10;;;;;;;20.60;3.58;;;16.60;99.90;;;;;;4997195;28;20389;-83
2021/03/21 07:07:01;;;;;;;19.07;3.37;;;16.60;99.90;;;;;;5030337;28;20480;-83
2021/03/21 07:09:40;;;;;;;25.40;3.50;;;16.60;99.90;;;;;;5030173;28;20434;-84
2021/03/21 07:12:07;;;;;;;23.98;4.13;;;16.60;99.90;;;;;;5030493;28;20835;-84
2021/03/21 07:15:10;;;;;;;22.17;3.20;;;16.60;99.90;;;;;;5030586;28;20369;-84
2021/03/21 07:18:08;;;;;;;22.45;4.03;;;16.60;99.90;;;;;;5050049;28;20668;-82
2021/03/21 07:21:02;;;;;;;24.58;4.40;;;16.50;99.90;;;;;;5033960;28;20407;-84
2021/03/21 07:23:51;;;;;;;28.80;4.18;;;16.60;99.90;;;;;;5049881;28;20454;-83
2021/03/21 07:26:44;;;;;;;27.77;4.55;;;16.50;99.90;;;;;;5049758;28;20431;-84
2021/03/21 07:29:29;;;;;;;30.27;4.72;;;16.50;99.90;;;;;;5050096;28;20375;-83
2021/03/21 07:32:11;;;;;;;26.67;4.00;;;16.50;99.90;;;;;;5054627;28;20458;-84
2021/03/21 07:35:08;;;;;;;33.60;4.78;;;16.50;99.90;;;;;;5069502;28;20553;-83
2021/03/21 07:37:41;;;;;;;30.15;4.25;;;16.50;99.90;;;;;;5069955;28;20716;-83
2021/03/21 07:40:37;;;;;;;33.67;4.63;;;16.50;99.90;;;;;;5070004;28;20374;-83
2021/03/21 07:43:16;;;;;;;26.90;4.07;;;16.50;99.90;;;;;;5052889;28;20382;-82
2021/03/21 07:45:49;;;;;;;27.37;4.30;;;16.60;99.90;;;;;;5069589;28;20374;-84
2021/03/21 07:48:32;;;;;;;28.45;5.03;;;16.60;99.90;;;;;;5053907;28;20885;-84
2021/03/21 07:51:29;;;;;;;36.08;5.63;;;16.60;99.90;;;;;;5050354;28;20387;-84
2021/03/21 07:54:34;;;;;;;29.20;4.55;;;16.60;99.90;;;;;;5068623;28;20389;-84
2021/03/21 07:57:23;;;;;;;30.95;4.82;;;16.60;99.90;;;;;;5069447;28;20409;-83
2021/03/21 07:59:50;;;;;;;33.85;4.95;;;16.60;99.90;;;;;;5051314;28;20475;-83
2021/03/21 08:02:26;;;;;;;34.92;4.95;;;16.60;99.90;;;;;;5069341;28;20406;-83
2021/03/21 08:04:59;;;;;;;37.00;5.00;;;16.60;99.90;;;;;;5069221;28;20374;-83
2021/03/21 08:07:37;;;;;;;33.00;5.22;;;16.60;99.90;;;;;;5068777;28;20463;-82
2021/03/21 08:10:19;;;;;;;33.40;5.13;;;16.70;99.90;;;;;;5068828;28;20517;-82
2021/03/21 08:12:56;;;;;;;41.47;5.53;;;16.70;99.90;;;;;;5069142;28;20366;-84
2021/03/21 08:15:26;;;;;;;34.92;5.35;;;16.70;99.90;;;;;;5069277;28;20458;-84
2021/03/21 08:17:56;;;;;;;27.93;4.40;;;16.70;99.90;;;;;;5069365;28;20739;-83
2021/03/21 08:20:31;;;;;;;29.42;3.97;;;16.70;99.90;;;;;;5069658;28;20378;-84
2021/03/21 08:23:20;;;;;;;22.80;3.80;;;16.80;99.90;;;;;;5069068;28;20385;-84
2021/03/21 08:25:49;;;;;;;29.20;4.63;;;16.80;99.90;;;;;;5050653;28;20383;-84
2021/03/21 08:28:18;;;;;;;26.05;4.25;;;16.80;99.90;;;;;;5060419;28;20760;-84
2021/03/21 08:30:53;;;;;;;28.63;4.82;;;16.90;99.90;;;;;;5069364;28;20382;-85
2021/03/21 08:33:33;;;;;;;31.92;4.55;;;16.90;99.90;;;;;;5069590;28;20386;-83
2021/03/21 08:36:23;;;;;;;34.97;5.47;;;16.90;99.90;;;;;;5069988;28;20765;-83
2021/03/21 08:39:27;;;;;;;41.35;5.32;;;16.90;99.90;;;;;;5070755;28;20378;-83
2021/03/21 08:42:00;;;;;;;37.90;5.13;;;17.00;99.90;;;;;;5080161;28;20402;-84
2021/03/21 08:44:36;;;;;;;42.30;5.25;;;17.00;99.90;;;;;;5040231;28;20991;-82
2021/03/21 08:47:04;;;;;;;39.53;5.50;;;17.00;99.90;;;;;;5043149;28;20972;-85
2021/03/21 08:49:39;;;;;;;41.00;5.40;;;17.00;99.90;;;;;;5056992;28;20421;-82
2021/03/21 08:52:06;;;;;;;40.95;5.85;;;17.10;99.90;;;;;;5051335;28;20400;-84
2021/03/21 08:54:38;;;;;;;40.20;5.43;;;17.10;99.90;;;;;;5062525;28;20397;-83
2021/03/21 08:57:14;;;;;;;43.97;5.13;;;17.10;99.90;;;;;;5051274;28;20874;-83
2021/03/21 08:59:45;;;;;;;39.07;4.97;;;17.10;99.90;;;;;;5066494;28;20465;-82
2021/03/21 09:02:14;;;;;;;33.08;4.63;;;17.10;99.90;;;;;;5033807;28;20883;-84
2021/03/21 09:05:04;;;;;;;34.85;4.22;;;17.10;99.90;;;;;;5052246;28;20382;-85
2021/03/21 09:07:40;;;;;;;30.92;4.85;;;17.00;99.90;;;;;;5049306;28;21166;-84
2021/03/21 09:10:13;;;;;;;26.50;4.18;;;17.00;99.90;;;;;;5056891;28;20393;-82
2021/03/21 09:12:47;;;;;;;30.33;4.10;;;17.00;99.90;;;;;;5061789;28;20430;-82
2021/03/21 09:15:38;;;;;;;21.13;3.13;;;17.00;99.90;;;;;;5068271;28;20382;-82
2021/03/21 09:18:17;;;;;;;25.33;3.83;;;17.00;99.90;;;;;;5060157;28;20749;-81
2021/03/21 09:21:14;;;;;;;31.77;4.03;;;17.00;99.90;;;;;;5048791;28;20419;-81
2021/03/21 09:23:46;;;;;;;30.42;4.18;;;16.90;99.90;;;;;;5050596;28;20439;-81
2021/03/21 09:26:13;;;;;;;28.35;3.88;;;17.00;99.90;;;;;;5071990;28;20421;-81
2021/03/21 09:28:46;;;;;;;26.20;3.85;;;17.00;99.90;;;;;;5053285;28;20364;-83
2021/03/21 09:31:15;;;;;;;27.58;3.80;;;17.00;99.90;;;;;;5060047;28;20439;-82
2021/03/21 09:33:56;;;;;;;27.63;3.75;;;17.10;99.90;;;;;;5061736;28;20492;-82
2021/03/21 09:36:27;;;;;;;29.30;3.97;;;17.10;99.90;;;;;;5045635;28;20896;-83
2021/03/21 09:39:02;;;;;;;26.85;3.92;;;17.20;99.90;;;;;;5032316;28;20547;-82
2021/03/21 09:41:29;;;;;;;31.08;4.53;;;17.30;99.90;;;;;;5052059;28;20805;-81
2021/03/21 09:44:16;;;;;;;28.85;4.32;;;17.30;99.90;;;;;;5052830;28;20404;-83
2021/03/21 09:46:58;;;;;;;25.65;3.58;;;17.40;99.90;;;;;;5051354;28;20506;-81
2021/03/21 09:49:44;;;;;;;26.30;3.55;;;17.40;99.90;;;;;;5063319;28;20397;-83
2021/03/21 09:52:40;;;;;;;25.53;3.60;;;17.50;99.90;;;;;;5054705;28;20766;-83
2021/03/21 09:55:50;;;;;;;19.70;3.10;;;17.50;99.90;;;;;;5010761;28;20762;-82
2021/03/21 09:58:39;;;;;;;13.88;2.25;;;17.50;99.90;;;;;;4968469;28;20769;-82
2021/03/21 10:01:32;;;;;;;18.25;3.20;;;17.50;99.90;;;;;;4965444;28;20834;-82
2021/03/21 10:04:24;;;;;;;14.63;2.40;;;17.50;99.90;;;;;;5037801;28;20396;-86
2021/03/21 10:06:54;;;;;;;19.77;2.60;;;17.50;99.90;;;;;;5035454;28;20804;-82
2021/03/21 10:09:24;;;;;;;15.02;2.60;;;17.50;99.90;;;;;;5046446;28;20406;-82
2021/03/21 10:11:59;;;;;;;12.73;2.40;;;17.50;99.90;;;;;;5058110;28;20442;-84
2021/03/21 10:14:26;;;;;;;15.05;2.40;;;17.50;99.90;;;;;;5051890;28;20410;-83
2021/03/21 10:16:54;;;;;;;19.35;3.17;;;17.60;99.90;;;;;;5060376;28;20468;-82
2021/03/21 10:19:39;;;;;;;19.98;2.65;;;17.60;99.90;;;;;;5048448;28;20391;-82
2021/03/21 10:22:22;;;;;;;23.45;3.75;;;17.60;99.90;;;;;;5048386;28;20387;-83
2021/03/21 10:24:54;;;;;;;32.45;4.28;;;17.70;99.90;;;;;;5054805;28;20395;-83
2021/03/21 10:27:22;;;;;;;29.67;4.47;;;17.70;99.90;;;;;;5049229;28;20574;-82
2021/03/21 10:29:52;;;;;;;36.30;5.38;;;17.70;99.90;;;;;;5065964;28;21009;-83
2021/03/21 10:32:23;;;;;;;43.88;6.00;;;17.70;99.90;;;;;;5060122;28;20380;-83
2021/03/21 10:34:51;;;;;;;48.58;5.65;;;17.80;99.90;;;;;;5048595;28;20406;-83
2021/03/21 10:37:42;;;;;;;43.25;5.65;;;17.70;99.90;;;;;;5064981;28;20394;-85
2021/03/21 10:40:20;;;;;;;40.05;5.88;;;17.70;99.90;;;;;;5067865;28;20386;-84
2021/03/21 10:42:50;;;;;;;40.15;6.05;;;17.60;99.90;;;;;;5067684;28;20400;-84
2021/03/21 10:45:37;;;;;;;38.40;5.50;;;17.60;99.90;;;;;;5067800;28;20807;-84
2021/03/21 10:48:16;;;;;;;44.67;6.32;;;17.50;99.90;;;;;;5067231;28;20402;-83
2021/03/21 10:50:52;;;;;;;43.25;5.78;;;17.50;99.90;;;;;;5067813;28;20998;-82
2021/03/21 10:53:39;;;;;;;42.08;5.40;;;17.50;99.90;;;;;;5067898;28;20374;-83
2021/03/21 10:56:20;;;;;;;35.80;4.90;;;17.50;99.90;;;;;;5067923;28;20434;-84
2021/03/21 10:58:47;;;;;;;35.05;5.45;;;17.60;99.90;;;;;;5066081;28;20477;-83
2021/03/21 11:01:25;;;;;;;36.40;5.40;;;17.60;99.90;;;;;;5067027;28;20378;-83
2021/03/21 11:03:58;;;;;;;37.30;5.20;;;17.50;99.90;;;;;;5067208;28;20374;-83
2021/03/21 11:06:28;;;;;;;33.75;5.28;;;17.50;99.90;;;;;;5067636;28;20447;-86
2021/03/21 11:08:55;;;;;;;41.22;5.50;;;17.40;99.90;;;;;;5077689;28;20388;-83
2021/03/21 11:11:39;;;;;;;34.40;4.90;;;17.40;99.90;;;;;;5087454;28;20374;-85
2021/03/21 11:14:28;;;;;;;31.23;4.47;;;17.40;99.90;;;;;;5072892;28;20867;-84
2021/03/21 11:20:35;;;;;;;37.25;4.75;;;17.40;99.90;;;;;;5030820;28;20401;-84
2021/03/21 11:23:20;;;;;;;35.58;4.57;;;17.30;99.90;;;;;;5066685;28;20382;-83
2021/03/21 11:25:48;;;;;;;43.22;5.32;;;17.40;99.90;;;;;;5067028;28;20374;-84
2021/03/21 11:28:36;;;;;;;41.85;5.35;;;17.40;99.90;;;;;;5066771;28;20481;-82
2021/03/21 11:31:06;;;;;;;41.15;5.82;;;17.40;99.90;;;;;;5085850;28;20426;-82
2021/03/21 11:33:42;;;;;;;40.35;4.78;;;17.40;99.90;;;;;;5071589;28;20990;-83
2021/03/21 11:36:21;;;;;;;36.75;5.45;;;17.50;99.90;;;;;;5058599;28;20404;-83
2021/03/21 11:38:50;;;;;;;44.40;5.47;;;17.50;99.90;;;;;;5039196;28;20921;-83
2021/03/21 11:41:23;;;;;;;42.67;5.90;;;17.50;99.90;;;;;;5048651;28;20402;-84
2021/03/21 11:43:50;;;;;;;42.53;6.27;;;17.60;99.90;;;;;;5045510;28;20395;-83
2021/03/21 11:46:31;;;;;;;38.80;5.32;;;17.60;99.90;;;;;;5045583;28;20761;-83
2021/03/21 11:48:59;;;;;;;50.13;6.40;;;17.60;99.90;;;;;;5045452;28;20890;-83
2021/03/21 11:51:27;;;;;;;49.00;6.10;;;17.60;99.90;;;;;;5046650;28;20778;-82
2021/03/21 11:53:56;;;;;;;46.97;6.07;;;17.60;99.90;;;;;;5045928;28;20422;-83
2021/03/21 11:56:44;;;;;;;40.15;5.55;;;17.50;99.90;;;;;;5045845;28;20463;-82
2021/03/21 11:59:17;;;;;;;44.72;4.95;;;17.60;99.90;;;;;;5047823;28;20886;-83
2021/03/21 12:01:47;;;;;;;49.58;5.85;;;17.60;99.90;;;;;;5045459;28;20897;-84
2021/03/21 12:04:35;;;;;;;39.75;5.43;;;17.60;99.90;;;;;;5046160;28;20549;-84
2021/03/21 12:07:03;;;;;;;41.40;5.87;;;17.60;99.90;;;;;;5046040;28;20967;-84
2021/03/21 12:09:34;;;;;;;45.42;5.75;;;17.60;99.90;;;;;;5045442;28;20420;-84
2021/03/21 12:12:03;;;;;;;37.72;5.15;;;17.60;99.90;;;;;;5045916;28;20886;-84
2021/03/21 12:14:33;;;;;;;28.33;3.95;;;17.70;99.90;;;;;;5043735;28;20920;-85
2021/03/21 12:17:20;;;;;;;28.15;3.95;;;17.70;99.90;;;;;;5044539;28;20400;-89
2021/03/21 12:19:47;;;;;;;23.25;3.67;;;17.60;99.90;;;;;;5035499;28;20870;-80
2021/03/21 12:22:37;;;;;;;15.85;2.75;;;17.60;99.90;;;;;;5046603;28;20390;-85
2021/03/21 12:25:27;;;;;;;14.55;2.97;;;17.60;99.90;;;;;;5045450;28;20399;-83
2021/03/21 12:28:03;;;;;;;22.90;4.28;;;17.50;99.90;;;;;;5035432;28;20408;-83
2021/03/21 12:30:40;;;;;;;27.02;4.22;;;17.60;99.90;;;;;;5043759;28;20498;-82
2021/03/21 12:33:28;;;;;;;23.42;4.07;;;17.50;99.90;;;;;;5054843;28;20420;-82
2021/03/21 12:36:16;;;;;;;24.60;3.58;;;17.60;99.90;;;;;;5057050;28;20394;-84
2021/03/21 12:38:52;;;;;;;23.65;3.85;;;17.60;99.90;;;;;;5069477;28;20409;-85
2021/03/21 12:41:40;;;;;;;26.90;3.97;;;17.60;99.90;;;;;;5066549;28;20465;-86
2021/03/21 12:44:14;;;;;;;24.85;4.40;;;17.60;99.90;;;;;;5050473;28;20859;-86
2021/03/21 12:46:58;;;;;;;29.77;4.63;;;17.60;99.90;;;;;;5081375;28;20428;-85
2021/03/21 12:49:48;;;;;;;29.10;4.13;;;17.70;99.90;;;;;;5068494;28;20382;-86
2021/03/21 12:52:47;;;;;;;32.80;4.03;;;17.70;99.90;;;;;;5069267;28;20382;-86
2021/03/21 12:55:17;;;;;;;33.40;4.65;;;17.70;99.90;;;;;;5057287;28;20386;-85
2021/03/21 12:57:44;;;;;;;33.05;5.82;;;17.70;99.90;;;;;;5072551;28;20466;-86
2021/03/21 13:00:24;;;;;;;37.22;5.65;;;17.70;99.90;;;;;;5072729;28;20370;-85
2021/03/21 13:02:53;;;;;;;35.13;5.22;;;17.80;99.90;;;;;;5073943;28;20393;-84
2021/03/21 13:05:28;;;;;;;37.03;5.40;;;17.90;99.90;;;;;;5072023;28;20492;-86
2021/03/21 13:07:56;;;;;;;38.45;5.93;;;17.90;99.90;;;;;;5072747;28;20405;-85
2021/03/21 13:10:23;;;;;;;39.50;6.45;;;17.90;99.90;;;;;;5073304;28;20398;-83
2021/03/21 13:12:51;;;;;;;47.88;6.63;;;17.90;99.90;;;;;;5072520;28;20405;-85
2021/03/21 13:15:21;;;;;;;39.15;5.05;;;17.90;99.90;;;;;;5073530;28;20416;-82
2021/03/21 13:17:49;;;;;;;48.53;6.40;;;17.90;99.90;;;;;;5072126;28;20477;-84
2021/03/21 13:20:20;;;;;;;34.58;5.82;;;17.90;99.90;;;;;;5072307;28;20388;-83
2021/03/21 13:22:48;;;;;;;41.33;6.15;;;18.00;99.90;;;;;;5085500;28;20396;-83
2021/03/21 13:25:26;;;;;;;45.67;6.47;;;18.00;99.90;;;;;;5069910;28;20389;-83
2021/03/21 13:27:55;;;;;;;51.05;6.38;;;18.00;99.90;;;;;;5059526;28;20900;-84
2021/03/21 13:30:29;;;;;;;41.17;5.97;;;18.00;99.90;;;;;;5070878;28;20381;-83
2021/03/21 13:32:56;;;;;;;46.97;6.03;;;18.00;99.90;;;;;;5071306;28;20458;-83
2021/03/21 13:35:25;;;;;;;43.05;5.82;;;18.00;99.90;;;;;;5071861;28;20472;-82
2021/03/21 13:37:53;;;;;;;40.15;5.75;;;18.10;99.90;;;;;;5054101;28;20436;-84
2021/03/21 13:40:33;;;;;;;39.45;5.50;;;18.10;99.90;;;;;;5056228;28;20370;-81
2021/03/21 13:43:01;;;;;;;23.77;3.65;;;18.00;99.90;;;;;;5074291;28;20405;-83